sensor_id;sensor_type;location;lat;lon;timestamp;P1;durP1;ratioP1;P2;durP2;ratioP2
2684;SDS011;1352;48.446;9.156;2022-07-29T00:00:07;7.90;;;7.30;;
2684;SDS011;1352;48.446;9.156;2022-07-29T00:02:35;7.30;;;5.87;;
2684;SDS011;1352;48.446;9.156;2022-07-29T00:05:03;7.10;;;6.50;;
2684;SDS011;1352;48.446;9.156;2022-07-29T00:07:31;7.77;;;7.07;;
2684;SDS011;1352;48.446;9.156;2022-07-29T00:09:58;7.10;;;6.50;;
2684;SDS011;1352;48.446;9.156;2022-07-29T00:12:27;6.53;;;6.00;;
2684;SDS011;1352;48.446;9.156;2022-07-29T00:14:54;6.70;;;6.20;;
2684;SDS011;1352;48.446;9.156;2022-07-29T00:17:22;6.73;;;6.07;;
2684;SDS011;1352;48.446;9.156;2022-07-29T00:19:50;6.47;;;6.00;;
2684;SDS011;1352;48.446;9.156;2022-07-29T00:22:18;6.13;;;5.63;;
2684;SDS011;1352;48.446;9.156;2022-07-29T00:24:46;6.37;;;5.73;;
2684;SDS011;1352;48.446;9.156;2022-07-29T00:27:13;6.80;;;6.30;;
2684;SDS011;1352;48.446;9.156;2022-07-29T00:29:42;8.30;;;5.33;;
2684;SDS011;1352;48.446;9.156;2022-07-29T00:32:09;5.50;;;4.70;;
2684;SDS011;1352;48.446;9.156;2022-07-29T00:34:36;5.97;;;5.27;;
2684;SDS011;1352;48.446;9.156;2022-07-29T00:37:21;6.03;;;5.53;;
2684;SDS011;1352;48.446;9.156;2022-07-29T00:39:51;6.23;;;5.73;;
2684;SDS011;1352;48.446;9.156;2022-07-29T00:42:18;8.13;;;7.43;;
2684;SDS011;1352;48.446;9.156;2022-07-29T00:44:47;7.43;;;6.60;;
2684;SDS011;1352;48.446;9.156;2022-07-29T00:47:17;7.97;;;7.27;;
2684;SDS011;1352;48.446;9.156;2022-07-29T00:49:44;6.93;;;6.33;;
2684;SDS011;1352;48.446;9.156;2022-07-29T00:52:14;7.83;;;7.13;;
2684;SDS011;1352;48.446;9.156;2022-07-29T00:54:41;8.60;;;7.90;;
2684;SDS011;1352;48.446;9.156;2022-07-29T00:57:08;8.13;;;7.53;;
2684;SDS011;1352;48.446;9.156;2022-07-29T00:59:35;8.30;;;7.50;;
2684;SDS011;1352;48.446;9.156;2022-07-29T01:02:04;8.57;;;7.87;;
2684;SDS011;1352;48.446;9.156;2022-07-29T01:04:31;9.93;;;9.03;;
2684;SDS011;1352;48.446;9.156;2022-07-29T01:06:59;9.47;;;8.77;;
2684;SDS011;1352;48.446;9.156;2022-07-29T01:09:27;9.27;;;8.47;;
2684;SDS011;1352;48.446;9.156;2022-07-29T01:11:55;11.20;;;9.50;;
2684;SDS011;1352;48.446;9.156;2022-07-29T01:14:23;9.43;;;8.63;;
2684;SDS011;1352;48.446;9.156;2022-07-29T01:16:53;10.87;;;9.10;;
2684;SDS011;1352;48.446;9.156;2022-07-29T01:19:39;10.07;;;9.17;;
2684;SDS011;1352;48.446;9.156;2022-07-29T01:22:18;9.67;;;8.80;;
2684;SDS011;1352;48.446;9.156;2022-07-29T01:25:03;8.47;;;7.87;;
2684;SDS011;1352;48.446;9.156;2022-07-29T01:27:45;7.50;;;7.00;;
2684;SDS011;1352;48.446;9.156;2022-07-29T01:30:26;7.30;;;6.60;;
2684;SDS011;1352;48.446;9.156;2022-07-29T01:32:56;7.20;;;6.60;;
2684;SDS011;1352;48.446;9.156;2022-07-29T01:35:28;5.53;;;5.13;;
2684;SDS011;1352;48.446;9.156;2022-07-29T01:38:01;6.37;;;5.93;;
2684;SDS011;1352;48.446;9.156;2022-07-29T01:40:37;5.67;;;5.10;;
2684;SDS011;1352;48.446;9.156;2022-07-29T01:43:10;5.53;;;5.13;;
2684;SDS011;1352;48.446;9.156;2022-07-29T01:45:46;5.93;;;5.43;;
2684;SDS011;1352;48.446;9.156;2022-07-29T01:48:19;6.13;;;5.53;;
2684;SDS011;1352;48.446;9.156;2022-07-29T01:50:50;5.53;;;5.13;;
2684;SDS011;1352;48.446;9.156;2022-07-29T01:53:27;5.47;;;4.50;;
2684;SDS011;1352;48.446;9.156;2022-07-29T01:56:00;5.30;;;4.47;;
2684;SDS011;1352;48.446;9.156;2022-07-29T01:58:30;5.67;;;5.10;;
2684;SDS011;1352;48.446;9.156;2022-07-29T02:01:04;6.00;;;5.50;;
2684;SDS011;1352;48.446;9.156;2022-07-29T02:03:34;5.07;;;4.70;;
2684;SDS011;1352;48.446;9.156;2022-07-29T02:06:04;6.93;;;5.33;;
2684;SDS011;1352;48.446;9.156;2022-07-29T02:08:33;5.80;;;5.30;;
2684;SDS011;1352;48.446;9.156;2022-07-29T02:11:03;5.50;;;4.97;;
2684;SDS011;1352;48.446;9.156;2022-07-29T02:13:33;5.50;;;5.10;;
2684;SDS011;1352;48.446;9.156;2022-07-29T02:16:02;6.23;;;5.70;;
2684;SDS011;1352;48.446;9.156;2022-07-29T02:18:33;5.60;;;5.10;;
2684;SDS011;1352;48.446;9.156;2022-07-29T02:21:03;5.03;;;4.67;;
2684;SDS011;1352;48.446;9.156;2022-07-29T02:23:31;5.43;;;4.93;;
2684;SDS011;1352;48.446;9.156;2022-07-29T02:26:02;8.00;;;5.70;;
2684;SDS011;1352;48.446;9.156;2022-07-29T02:28:29;6.90;;;4.90;;
2684;SDS011;1352;48.446;9.156;2022-07-29T02:30:59;5.27;;;4.87;;
2684;SDS011;1352;48.446;9.156;2022-07-29T02:33:32;4.97;;;4.57;;
2684;SDS011;1352;48.446;9.156;2022-07-29T02:36:01;6.47;;;5.23;;
2684;SDS011;1352;48.446;9.156;2022-07-29T02:38:28;5.53;;;5.07;;
2684;SDS011;1352;48.446;9.156;2022-07-29T02:41:16;5.53;;;5.07;;
2684;SDS011;1352;48.446;9.156;2022-07-29T02:43:47;7.10;;;6.40;;
2684;SDS011;1352;48.446;9.156;2022-07-29T02:46:17;7.47;;;6.83;;
2684;SDS011;1352;48.446;9.156;2022-07-29T02:48:51;7.03;;;6.53;;
2684;SDS011;1352;48.446;9.156;2022-07-29T02:51:25;7.83;;;7.13;;
2684;SDS011;1352;48.446;9.156;2022-07-29T02:53:58;8.23;;;6.30;;
2684;SDS011;1352;48.446;9.156;2022-07-29T02:56:28;5.53;;;5.03;;
2684;SDS011;1352;48.446;9.156;2022-07-29T02:59:01;7.10;;;6.40;;
2684;SDS011;1352;48.446;9.156;2022-07-29T03:01:32;6.20;;;5.70;;
2684;SDS011;1352;48.446;9.156;2022-07-29T03:04:03;6.73;;;6.17;;
2684;SDS011;1352;48.446;9.156;2022-07-29T03:06:31;7.03;;;6.43;;
2684;SDS011;1352;48.446;9.156;2022-07-29T03:09:02;7.63;;;6.93;;
2684;SDS011;1352;48.446;9.156;2022-07-29T03:11:30;8.10;;;6.57;;
2684;SDS011;1352;48.446;9.156;2022-07-29T03:13:57;6.17;;;5.73;;
2684;SDS011;1352;48.446;9.156;2022-07-29T03:16:24;6.27;;;5.77;;
2684;SDS011;1352;48.446;9.156;2022-07-29T03:18:52;6.60;;;6.10;;
2684;SDS011;1352;48.446;9.156;2022-07-29T03:21:21;6.77;;;6.20;;
2684;SDS011;1352;48.446;9.156;2022-07-29T03:23:48;6.17;;;5.57;;
2684;SDS011;1352;48.446;9.156;2022-07-29T03:26:15;6.50;;;5.90;;
2684;SDS011;1352;48.446;9.156;2022-07-29T03:28:45;5.33;;;4.93;;
2684;SDS011;1352;48.446;9.156;2022-07-29T03:31:12;6.37;;;5.57;;
2684;SDS011;1352;48.446;9.156;2022-07-29T03:33:39;5.37;;;4.97;;
2684;SDS011;1352;48.446;9.156;2022-07-29T03:36:06;5.57;;;5.17;;
2684;SDS011;1352;48.446;9.156;2022-07-29T03:38:34;6.00;;;5.40;;
2684;SDS011;1352;48.446;9.156;2022-07-29T03:41:04;5.63;;;5.23;;
2684;SDS011;1352;48.446;9.156;2022-07-29T03:43:35;5.77;;;5.27;;
2684;SDS011;1352;48.446;9.156;2022-07-29T03:46:04;5.60;;;5.20;;
2684;SDS011;1352;48.446;9.156;2022-07-29T03:48:34;6.90;;;6.30;;
2684;SDS011;1352;48.446;9.156;2022-07-29T03:51:05;7.60;;;6.80;;
2684;SDS011;1352;48.446;9.156;2022-07-29T03:53:32;6.60;;;6.10;;
2684;SDS011;1352;48.446;9.156;2022-07-29T03:56:05;6.47;;;5.80;;
2684;SDS011;1352;48.446;9.156;2022-07-29T03:58:35;6.60;;;6.00;;
2684;SDS011;1352;48.446;9.156;2022-07-29T04:01:04;5.90;;;5.50;;
2684;SDS011;1352;48.446;9.156;2022-07-29T04:03:31;6.80;;;6.10;;
2684;SDS011;1352;48.446;9.156;2022-07-29T04:05:59;7.13;;;6.50;;
2684;SDS011;1352;48.446;9.156;2022-07-29T04:08:27;8.90;;;8.10;;
2684;SDS011;1352;48.446;9.156;2022-07-29T04:10:55;6.80;;;6.30;;
2684;SDS011;1352;48.446;9.156;2022-07-29T04:13:24;6.80;;;6.30;;
2684;SDS011;1352;48.446;9.156;2022-07-29T04:15:51;11.00;;;6.33;;
2684;SDS011;1352;48.446;9.156;2022-07-29T04:18:21;6.60;;;6.00;;
2684;SDS011;1352;48.446;9.156;2022-07-29T04:20:48;6.13;;;5.63;;
2684;SDS011;1352;48.446;9.156;2022-07-29T04:23:15;7.10;;;6.50;;
2684;SDS011;1352;48.446;9.156;2022-07-29T04:25:42;6.70;;;6.10;;
2684;SDS011;1352;48.446;9.156;2022-07-29T04:28:12;6.83;;;6.27;;
2684;SDS011;1352;48.446;9.156;2022-07-29T04:30:41;6.40;;;5.90;;
2684;SDS011;1352;48.446;9.156;2022-07-29T04:33:08;7.17;;;6.07;;
2684;SDS011;1352;48.446;9.156;2022-07-29T04:35:35;6.07;;;5.40;;
2684;SDS011;1352;48.446;9.156;2022-07-29T04:38:04;6.10;;;5.60;;
2684;SDS011;1352;48.446;9.156;2022-07-29T04:40:35;6.13;;;5.43;;
2684;SDS011;1352;48.446;9.156;2022-07-29T04:43:02;7.07;;;6.37;;
2684;SDS011;1352;48.446;9.156;2022-07-29T04:45:29;4.97;;;4.67;;
2684;SDS011;1352;48.446;9.156;2022-07-29T04:47:57;5.90;;;5.40;;
2684;SDS011;1352;48.446;9.156;2022-07-29T04:50:24;6.00;;;5.60;;
2684;SDS011;1352;48.446;9.156;2022-07-29T04:52:54;6.30;;;5.47;;
2684;SDS011;1352;48.446;9.156;2022-07-29T04:55:21;5.33;;;5.03;;
2684;SDS011;1352;48.446;9.156;2022-07-29T04:57:48;6.20;;;5.20;;
2684;SDS011;1352;48.446;9.156;2022-07-29T05:00:16;6.13;;;5.53;;
2684;SDS011;1352;48.446;9.156;2022-07-29T05:02:43;6.53;;;5.63;;
2684;SDS011;1352;48.446;9.156;2022-07-29T05:05:14;5.87;;;5.37;;
2684;SDS011;1352;48.446;9.156;2022-07-29T05:07:41;5.40;;;5.00;;
2684;SDS011;1352;48.446;9.156;2022-07-29T05:10:09;6.80;;;5.13;;
2684;SDS011;1352;48.446;9.156;2022-07-29T05:12:36;6.27;;;5.67;;
2684;SDS011;1352;48.446;9.156;2022-07-29T05:15:04;9.43;;;6.37;;
2684;SDS011;1352;48.446;9.156;2022-07-29T05:17:32;7.10;;;6.60;;
2684;SDS011;1352;48.446;9.156;2022-07-29T05:19:59;7.67;;;7.07;;
2684;SDS011;1352;48.446;9.156;2022-07-29T05:22:28;6.63;;;6.03;;
2684;SDS011;1352;48.446;9.156;2022-07-29T05:24:55;8.07;;;7.37;;
2684;SDS011;1352;48.446;9.156;2022-07-29T05:27:22;6.73;;;6.20;;
2684;SDS011;1352;48.446;9.156;2022-07-29T05:29:51;8.00;;;6.73;;
2684;SDS011;1352;48.446;9.156;2022-07-29T05:32:19;8.80;;;7.30;;
2684;SDS011;1352;48.446;9.156;2022-07-29T05:34:46;7.20;;;6.60;;
2684;SDS011;1352;48.446;9.156;2022-07-29T05:37:13;7.40;;;6.70;;
2684;SDS011;1352;48.446;9.156;2022-07-29T05:39:44;7.47;;;6.77;;
2684;SDS011;1352;48.446;9.156;2022-07-29T05:42:11;7.30;;;6.80;;
2684;SDS011;1352;48.446;9.156;2022-07-29T05:44:38;6.83;;;6.23;;
2684;SDS011;1352;48.446;9.156;2022-07-29T05:47:05;7.07;;;6.47;;
2684;SDS011;1352;48.446;9.156;2022-07-29T05:49:33;6.07;;;5.57;;
2684;SDS011;1352;48.446;9.156;2022-07-29T05:52:00;5.93;;;5.53;;
2684;SDS011;1352;48.446;9.156;2022-07-29T05:54:27;6.83;;;6.23;;
2684;SDS011;1352;48.446;9.156;2022-07-29T05:56:55;6.93;;;6.40;;
2684;SDS011;1352;48.446;9.156;2022-07-29T05:59:22;6.33;;;5.60;;
2684;SDS011;1352;48.446;9.156;2022-07-29T06:01:49;6.97;;;6.37;;
2684;SDS011;1352;48.446;9.156;2022-07-29T06:04:16;5.43;;;5.03;;
2684;SDS011;1352;48.446;9.156;2022-07-29T06:06:43;6.03;;;5.53;;
2684;SDS011;1352;48.446;9.156;2022-07-29T06:09:11;5.90;;;5.40;;
2684;SDS011;1352;48.446;9.156;2022-07-29T06:11:38;6.90;;;6.30;;
2684;SDS011;1352;48.446;9.156;2022-07-29T06:14:06;5.40;;;4.90;;
2684;SDS011;1352;48.446;9.156;2022-07-29T06:16:33;5.73;;;5.33;;
2684;SDS011;1352;48.446;9.156;2022-07-29T06:19:03;5.90;;;5.50;;
2684;SDS011;1352;48.446;9.156;2022-07-29T06:21:30;6.73;;;5.80;;
2684;SDS011;1352;48.446;9.156;2022-07-29T06:23:58;6.30;;;5.70;;
2684;SDS011;1352;48.446;9.156;2022-07-29T06:26:25;6.17;;;5.57;;
2684;SDS011;1352;48.446;9.156;2022-07-29T06:28:53;7.07;;;6.03;;
2684;SDS011;1352;48.446;9.156;2022-07-29T06:31:21;6.20;;;5.70;;
2684;SDS011;1352;48.446;9.156;2022-07-29T06:33:51;6.30;;;5.70;;
2684;SDS011;1352;48.446;9.156;2022-07-29T06:36:18;5.40;;;5.10;;
2684;SDS011;1352;48.446;9.156;2022-07-29T06:38:45;6.20;;;5.60;;
2684;SDS011;1352;48.446;9.156;2022-07-29T06:41:12;5.47;;;5.07;;
2684;SDS011;1352;48.446;9.156;2022-07-29T06:43:42;12.60;;;6.07;;
2684;SDS011;1352;48.446;9.156;2022-07-29T06:46:11;6.87;;;6.27;;
2684;SDS011;1352;48.446;9.156;2022-07-29T06:48:42;5.30;;;4.90;;
2684;SDS011;1352;48.446;9.156;2022-07-29T06:51:09;5.27;;;4.80;;
2684;SDS011;1352;48.446;9.156;2022-07-29T06:53:37;6.40;;;5.80;;
2684;SDS011;1352;48.446;9.156;2022-07-29T06:56:05;6.23;;;5.23;;
2684;SDS011;1352;48.446;9.156;2022-07-29T06:58:35;5.80;;;5.20;;
2684;SDS011;1352;48.446;9.156;2022-07-29T07:01:05;6.30;;;5.80;;
2684;SDS011;1352;48.446;9.156;2022-07-29T07:03:33;6.80;;;5.37;;
2684;SDS011;1352;48.446;9.156;2022-07-29T07:06:02;6.53;;;6.03;;
2684;SDS011;1352;48.446;9.156;2022-07-29T07:08:31;5.53;;;5.10;;
2684;SDS011;1352;48.446;9.156;2022-07-29T07:10:59;6.30;;;5.60;;
2684;SDS011;1352;48.446;9.156;2022-07-29T07:13:26;6.30;;;5.60;;
2684;SDS011;1352;48.446;9.156;2022-07-29T07:15:53;6.63;;;5.53;;
2684;SDS011;1352;48.446;9.156;2022-07-29T07:18:20;5.80;;;5.40;;
2684;SDS011;1352;48.446;9.156;2022-07-29T07:20:47;6.23;;;5.73;;
2684;SDS011;1352;48.446;9.156;2022-07-29T07:23:16;7.77;;;5.60;;
2684;SDS011;1352;48.446;9.156;2022-07-29T07:25:43;6.67;;;6.07;;
2684;SDS011;1352;48.446;9.156;2022-07-29T07:28:10;6.70;;;6.10;;
2684;SDS011;1352;48.446;9.156;2022-07-29T07:30:37;7.00;;;6.50;;
2684;SDS011;1352;48.446;9.156;2022-07-29T07:33:04;6.70;;;6.20;;
2684;SDS011;1352;48.446;9.156;2022-07-29T07:35:32;6.20;;;5.70;;
2684;SDS011;1352;48.446;9.156;2022-07-29T07:37:59;7.13;;;6.43;;
2684;SDS011;1352;48.446;9.156;2022-07-29T07:40:27;7.17;;;6.43;;
2684;SDS011;1352;48.446;9.156;2022-07-29T07:42:54;10.13;;;7.00;;
2684;SDS011;1352;48.446;9.156;2022-07-29T07:45:22;11.80;;;7.10;;
2684;SDS011;1352;48.446;9.156;2022-07-29T07:47:49;7.10;;;6.40;;
2684;SDS011;1352;48.446;9.156;2022-07-29T07:50:16;7.43;;;6.50;;
2684;SDS011;1352;48.446;9.156;2022-07-29T07:52:47;6.37;;;5.87;;
2684;SDS011;1352;48.446;9.156;2022-07-29T07:55:15;7.50;;;6.80;;
2684;SDS011;1352;48.446;9.156;2022-07-29T07:57:45;6.43;;;6.03;;
2684;SDS011;1352;48.446;9.156;2022-07-29T08:00:12;7.17;;;6.50;;
2684;SDS011;1352;48.446;9.156;2022-07-29T08:02:40;6.40;;;5.90;;
2684;SDS011;1352;48.446;9.156;2022-07-29T08:05:10;6.47;;;5.87;;
2684;SDS011;1352;48.446;9.156;2022-07-29T08:07:44;8.40;;;6.70;;
2684;SDS011;1352;48.446;9.156;2022-07-29T08:10:12;7.23;;;6.20;;
2684;SDS011;1352;48.446;9.156;2022-07-29T08:12:39;7.23;;;6.63;;
2684;SDS011;1352;48.446;9.156;2022-07-29T08:15:08;5.60;;;5.13;;
2684;SDS011;1352;48.446;9.156;2022-07-29T08:17:35;6.33;;;5.67;;
2684;SDS011;1352;48.446;9.156;2022-07-29T08:20:03;6.57;;;6.07;;
2684;SDS011;1352;48.446;9.156;2022-07-29T08:22:32;6.97;;;6.37;;
2684;SDS011;1352;48.446;9.156;2022-07-29T08:24:59;6.07;;;5.50;;
2684;SDS011;1352;48.446;9.156;2022-07-29T08:27:26;7.20;;;5.87;;
2684;SDS011;1352;48.446;9.156;2022-07-29T08:29:56;7.07;;;6.57;;
2684;SDS011;1352;48.446;9.156;2022-07-29T08:32:24;5.90;;;5.50;;
2684;SDS011;1352;48.446;9.156;2022-07-29T08:34:53;6.70;;;6.00;;
2684;SDS011;1352;48.446;9.156;2022-07-29T08:37:20;6.80;;;6.10;;
2684;SDS011;1352;48.446;9.156;2022-07-29T08:39:47;6.20;;;5.70;;
2684;SDS011;1352;48.446;9.156;2022-07-29T08:42:14;6.60;;;6.10;;
2684;SDS011;1352;48.446;9.156;2022-07-29T08:44:42;7.63;;;5.90;;
2684;SDS011;1352;48.446;9.156;2022-07-29T08:47:09;6.20;;;5.70;;
2684;SDS011;1352;48.446;9.156;2022-07-29T08:49:42;6.87;;;6.27;;
2684;SDS011;1352;48.446;9.156;2022-07-29T08:52:10;6.27;;;5.77;;
2684;SDS011;1352;48.446;9.156;2022-07-29T08:54:38;6.90;;;6.30;;
2684;SDS011;1352;48.446;9.156;2022-07-29T08:57:05;8.40;;;5.77;;
2684;SDS011;1352;48.446;9.156;2022-07-29T08:59:33;6.10;;;5.50;;
2684;SDS011;1352;48.446;9.156;2022-07-29T09:02:01;8.27;;;5.80;;
2684;SDS011;1352;48.446;9.156;2022-07-29T09:04:30;7.20;;;6.60;;
2684;SDS011;1352;48.446;9.156;2022-07-29T09:07:00;6.93;;;6.43;;
2684;SDS011;1352;48.446;9.156;2022-07-29T09:09:31;8.30;;;5.97;;
2684;SDS011;1352;48.446;9.156;2022-07-29T09:12:00;6.70;;;6.10;;
2684;SDS011;1352;48.446;9.156;2022-07-29T09:14:29;6.60;;;6.10;;
2684;SDS011;1352;48.446;9.156;2022-07-29T09:16:56;9.27;;;6.27;;
2684;SDS011;1352;48.446;9.156;2022-07-29T09:19:24;6.30;;;5.90;;
2684;SDS011;1352;48.446;9.156;2022-07-29T09:21:54;8.07;;;6.03;;
2684;SDS011;1352;48.446;9.156;2022-07-29T09:24:28;6.53;;;6.10;;
2684;SDS011;1352;48.446;9.156;2022-07-29T09:27:07;7.93;;;7.20;;
2684;SDS011;1352;48.446;9.156;2022-07-29T09:29:46;7.30;;;6.60;;
2684;SDS011;1352;48.446;9.156;2022-07-29T09:32:13;7.43;;;6.80;;
2684;SDS011;1352;48.446;9.156;2022-07-29T09:34:41;7.70;;;7.00;;
2684;SDS011;1352;48.446;9.156;2022-07-29T09:37:08;7.97;;;7.30;;
2684;SDS011;1352;48.446;9.156;2022-07-29T09:39:37;7.87;;;7.23;;
2684;SDS011;1352;48.446;9.156;2022-07-29T09:42:11;9.03;;;7.17;;
2684;SDS011;1352;48.446;9.156;2022-07-29T09:44:42;7.90;;;7.20;;
2684;SDS011;1352;48.446;9.156;2022-07-29T09:47:11;8.20;;;7.60;;
2684;SDS011;1352;48.446;9.156;2022-07-29T09:49:51;9.03;;;8.43;;
2684;SDS011;1352;48.446;9.156;2022-07-29T09:52:23;8.23;;;7.53;;
2684;SDS011;1352;48.446;9.156;2022-07-29T09:54:53;8.60;;;7.43;;
2684;SDS011;1352;48.446;9.156;2022-07-29T09:57:34;8.33;;;7.57;;
2684;SDS011;1352;48.446;9.156;2022-07-29T10:00:03;8.00;;;7.40;;
2684;SDS011;1352;48.446;9.156;2022-07-29T10:02:34;8.00;;;7.37;;
2684;SDS011;1352;48.446;9.156;2022-07-29T10:05:03;7.90;;;7.40;;
2684;SDS011;1352;48.446;9.156;2022-07-29T10:07:42;8.60;;;7.80;;
2684;SDS011;1352;48.446;9.156;2022-07-29T10:10:17;9.47;;;7.57;;
2684;SDS011;1352;48.446;9.156;2022-07-29T10:12:49;8.37;;;7.70;;
2684;SDS011;1352;48.446;9.156;2022-07-29T10:15:18;8.67;;;7.67;;
2684;SDS011;1352;48.446;9.156;2022-07-29T10:17:47;8.23;;;7.50;;
2684;SDS011;1352;48.446;9.156;2022-07-29T10:20:14;9.07;;;7.80;;
2684;SDS011;1352;48.446;9.156;2022-07-29T10:22:42;8.50;;;7.70;;
2684;SDS011;1352;48.446;9.156;2022-07-29T10:25:13;8.57;;;7.77;;
2684;SDS011;1352;48.446;9.156;2022-07-29T10:27:41;8.00;;;6.80;;
2684;SDS011;1352;48.446;9.156;2022-07-29T10:30:09;7.13;;;6.63;;
2684;SDS011;1352;48.446;9.156;2022-07-29T10:35:44;6.63;;;6.13;;
2684;SDS011;1352;48.446;9.156;2022-07-29T10:38:41;7.77;;;6.90;;
2684;SDS011;1352;48.446;9.156;2022-07-29T10:41:27;7.37;;;6.77;;
2684;SDS011;1352;48.446;9.156;2022-07-29T10:44:16;7.77;;;7.07;;
2684;SDS011;1352;48.446;9.156;2022-07-29T10:46:45;10.33;;;6.73;;
2684;SDS011;1352;48.446;9.156;2022-07-29T10:49:16;8.30;;;6.67;;
2684;SDS011;1352;48.446;9.156;2022-07-29T10:51:57;7.90;;;7.17;;
2684;SDS011;1352;48.446;9.156;2022-07-29T10:54:45;9.03;;;6.20;;
2684;SDS011;1352;48.446;9.156;2022-07-29T10:57:20;6.90;;;6.30;;
2684;SDS011;1352;48.446;9.156;2022-07-29T11:02:52;6.70;;;6.20;;
2684;SDS011;1352;48.446;9.156;2022-07-29T11:05:21;9.90;;;6.77;;
2684;SDS011;1352;48.446;9.156;2022-07-29T11:10:52;7.40;;;6.87;;
2684;SDS011;1352;48.446;9.156;2022-07-29T11:13:50;7.63;;;6.93;;
2684;SDS011;1352;48.446;9.156;2022-07-29T11:16:21;7.20;;;6.63;;
2684;SDS011;1352;48.446;9.156;2022-07-29T11:21:47;6.83;;;6.23;;
2684;SDS011;1352;48.446;9.156;2022-07-29T11:24:15;7.80;;;6.53;;
2684;SDS011;1352;48.446;9.156;2022-07-29T11:26:44;8.07;;;7.40;;
2684;SDS011;1352;48.446;9.156;2022-07-29T11:29:16;7.20;;;6.50;;
2684;SDS011;1352;48.446;9.156;2022-07-29T11:31:46;6.97;;;6.47;;
2684;SDS011;1352;48.446;9.156;2022-07-29T11:34:21;7.57;;;6.97;;
2684;SDS011;1352;48.446;9.156;2022-07-29T11:42:47;8.03;;;6.40;;
2684;SDS011;1352;48.446;9.156;2022-07-29T11:45:20;7.37;;;6.43;;
2684;SDS011;1352;48.446;9.156;2022-07-29T11:47:58;6.70;;;6.20;;
2684;SDS011;1352;48.446;9.156;2022-07-29T11:50:27;7.70;;;7.00;;
2684;SDS011;1352;48.446;9.156;2022-07-29T11:52:56;7.63;;;6.93;;
2684;SDS011;1352;48.446;9.156;2022-07-29T11:55:23;6.70;;;6.20;;
2684;SDS011;1352;48.446;9.156;2022-07-29T11:57:51;7.50;;;6.90;;
2684;SDS011;1352;48.446;9.156;2022-07-29T12:00:25;6.97;;;6.27;;
2684;SDS011;1352;48.446;9.156;2022-07-29T12:02:54;8.13;;;7.43;;
2684;SDS011;1352;48.446;9.156;2022-07-29T12:05:30;11.60;;;6.80;;
2684;SDS011;1352;48.446;9.156;2022-07-29T12:08:04;8.80;;;7.00;;
2684;SDS011;1352;48.446;9.156;2022-07-29T12:10:41;8.13;;;7.37;;
2684;SDS011;1352;48.446;9.156;2022-07-29T12:13:11;7.00;;;6.30;;
2684;SDS011;1352;48.446;9.156;2022-07-29T12:15:41;7.20;;;6.70;;
2684;SDS011;1352;48.446;9.156;2022-07-29T12:18:10;7.57;;;6.90;;
2684;SDS011;1352;48.446;9.156;2022-07-29T12:20:39;7.97;;;6.90;;
2684;SDS011;1352;48.446;9.156;2022-07-29T12:23:07;7.43;;;6.93;;
2684;SDS011;1352;48.446;9.156;2022-07-29T12:25:37;8.23;;;7.63;;
2684;SDS011;1352;48.446;9.156;2022-07-29T12:28:06;8.33;;;7.63;;
2684;SDS011;1352;48.446;9.156;2022-07-29T12:30:36;9.10;;;8.40;;
2684;SDS011;1352;48.446;9.156;2022-07-29T12:35:53;8.50;;;7.70;;
2684;SDS011;1352;48.446;9.156;2022-07-29T12:38:22;8.83;;;8.13;;
2684;SDS011;1352;48.446;9.156;2022-07-29T12:40:49;9.80;;;9.00;;
2684;SDS011;1352;48.446;9.156;2022-07-29T12:43:19;10.37;;;9.60;;
2684;SDS011;1352;48.446;9.156;2022-07-29T12:45:48;9.73;;;8.93;;
2684;SDS011;1352;48.446;9.156;2022-07-29T12:48:33;10.03;;;9.10;;
2684;SDS011;1352;48.446;9.156;2022-07-29T12:51:02;10.27;;;9.37;;
2684;SDS011;1352;48.446;9.156;2022-07-29T12:53:31;11.17;;;10.27;;
2684;SDS011;1352;48.446;9.156;2022-07-29T12:55:59;10.93;;;10.03;;
2684;SDS011;1352;48.446;9.156;2022-07-29T12:58:27;10.20;;;9.40;;
2684;SDS011;1352;48.446;9.156;2022-07-29T13:01:03;11.40;;;10.30;;
2684;SDS011;1352;48.446;9.156;2022-07-29T13:03:47;9.13;;;8.33;;
2684;SDS011;1352;48.446;9.156;2022-07-29T13:06:30;9.70;;;8.90;;
2684;SDS011;1352;48.446;9.156;2022-07-29T13:09:00;9.40;;;8.60;;
2684;SDS011;1352;48.446;9.156;2022-07-29T13:11:32;10.43;;;9.53;;
2684;SDS011;1352;48.446;9.156;2022-07-29T13:14:01;12.20;;;9.70;;
2684;SDS011;1352;48.446;9.156;2022-07-29T13:16:28;9.73;;;9.03;;
2684;SDS011;1352;48.446;9.156;2022-07-29T13:19:06;10.63;;;9.77;;
2684;SDS011;1352;48.446;9.156;2022-07-29T13:21:38;9.83;;;9.03;;
2684;SDS011;1352;48.446;9.156;2022-07-29T13:24:06;11.40;;;10.30;;
2684;SDS011;1352;48.446;9.156;2022-07-29T13:26:34;10.70;;;9.90;;
2684;SDS011;1352;48.446;9.156;2022-07-29T13:29:02;9.60;;;8.80;;
2684;SDS011;1352;48.446;9.156;2022-07-29T13:31:29;9.57;;;8.70;;
2684;SDS011;1352;48.446;9.156;2022-07-29T13:33:56;9.60;;;8.80;;
2684;SDS011;1352;48.446;9.156;2022-07-29T13:36:25;9.03;;;8.23;;
2684;SDS011;1352;48.446;9.156;2022-07-29T13:38:52;8.93;;;8.10;;
2684;SDS011;1352;48.446;9.156;2022-07-29T13:41:19;9.73;;;8.87;;
2684;SDS011;1352;48.446;9.156;2022-07-29T13:43:46;9.57;;;8.67;;
2684;SDS011;1352;48.446;9.156;2022-07-29T13:46:13;10.17;;;9.37;;
2684;SDS011;1352;48.446;9.156;2022-07-29T13:48:40;8.80;;;8.10;;
2684;SDS011;1352;48.446;9.156;2022-07-29T13:51:07;7.40;;;6.90;;
2684;SDS011;1352;48.446;9.156;2022-07-29T13:53:36;8.87;;;8.17;;
2684;SDS011;1352;48.446;9.156;2022-07-29T13:56:03;8.60;;;7.80;;
2684;SDS011;1352;48.446;9.156;2022-07-29T13:58:32;8.30;;;7.57;;
2684;SDS011;1352;48.446;9.156;2022-07-29T14:00:59;8.40;;;7.70;;
2684;SDS011;1352;48.446;9.156;2022-07-29T14:03:26;8.63;;;7.93;;
2684;SDS011;1352;48.446;9.156;2022-07-29T14:05:54;9.13;;;8.53;;
2684;SDS011;1352;48.446;9.156;2022-07-29T14:08:21;9.80;;;9.00;;
2684;SDS011;1352;48.446;9.156;2022-07-29T14:10:50;8.20;;;7.50;;
2684;SDS011;1352;48.446;9.156;2022-07-29T14:13:17;9.00;;;8.23;;
2684;SDS011;1352;48.446;9.156;2022-07-29T14:15:44;10.27;;;9.30;;
2684;SDS011;1352;48.446;9.156;2022-07-29T14:18:12;10.53;;;9.60;;
2684;SDS011;1352;48.446;9.156;2022-07-29T14:20:39;10.10;;;9.33;;
2684;SDS011;1352;48.446;9.156;2022-07-29T14:23:06;9.57;;;8.67;;
2684;SDS011;1352;48.446;9.156;2022-07-29T14:25:33;9.43;;;8.67;;
2684;SDS011;1352;48.446;9.156;2022-07-29T14:28:01;8.90;;;8.10;;
2684;SDS011;1352;48.446;9.156;2022-07-29T14:30:28;9.50;;;8.70;;
2684;SDS011;1352;48.446;9.156;2022-07-29T14:32:56;8.90;;;8.20;;
2684;SDS011;1352;48.446;9.156;2022-07-29T14:35:23;9.10;;;8.40;;
2684;SDS011;1352;48.446;9.156;2022-07-29T14:37:50;10.17;;;9.37;;
2684;SDS011;1352;48.446;9.156;2022-07-29T14:40:17;9.20;;;8.30;;
2684;SDS011;1352;48.446;9.156;2022-07-29T14:42:44;10.00;;;9.13;;
2684;SDS011;1352;48.446;9.156;2022-07-29T14:45:13;8.60;;;8.00;;
2684;SDS011;1352;48.446;9.156;2022-07-29T14:47:40;8.27;;;7.67;;
2684;SDS011;1352;48.446;9.156;2022-07-29T14:50:08;12.23;;;8.80;;
2684;SDS011;1352;48.446;9.156;2022-07-29T14:52:35;9.10;;;8.30;;
2684;SDS011;1352;48.446;9.156;2022-07-29T14:55:03;8.17;;;7.57;;
2684;SDS011;1352;48.446;9.156;2022-07-29T14:57:31;7.53;;;7.03;;
2684;SDS011;1352;48.446;9.156;2022-07-29T14:59:58;7.77;;;7.27;;
2684;SDS011;1352;48.446;9.156;2022-07-29T15:02:27;7.80;;;7.03;;
2684;SDS011;1352;48.446;9.156;2022-07-29T15:04:54;7.73;;;7.23;;
2684;SDS011;1352;48.446;9.156;2022-07-29T15:07:21;7.77;;;7.17;;
2684;SDS011;1352;48.446;9.156;2022-07-29T15:09:48;7.30;;;6.77;;
2684;SDS011;1352;48.446;9.156;2022-07-29T15:12:15;7.30;;;6.80;;
2684;SDS011;1352;48.446;9.156;2022-07-29T15:14:43;8.83;;;8.03;;
2684;SDS011;1352;48.446;9.156;2022-07-29T15:17:10;8.63;;;8.03;;
2684;SDS011;1352;48.446;9.156;2022-07-29T15:19:39;7.53;;;7.03;;
2684;SDS011;1352;48.446;9.156;2022-07-29T15:22:06;8.13;;;7.53;;
2684;SDS011;1352;48.446;9.156;2022-07-29T15:24:33;7.50;;;6.80;;
2684;SDS011;1352;48.446;9.156;2022-07-29T15:27:00;8.10;;;7.50;;
2684;SDS011;1352;48.446;9.156;2022-07-29T15:29:27;7.73;;;6.50;;
2684;SDS011;1352;48.446;9.156;2022-07-29T15:31:54;6.83;;;6.37;;
2684;SDS011;1352;48.446;9.156;2022-07-29T15:34:21;6.70;;;6.30;;
2684;SDS011;1352;48.446;9.156;2022-07-29T15:36:51;7.20;;;6.60;;
2684;SDS011;1352;48.446;9.156;2022-07-29T15:39:18;6.80;;;6.40;;
2684;SDS011;1352;48.446;9.156;2022-07-29T15:41:46;7.40;;;6.90;;
2684;SDS011;1352;48.446;9.156;2022-07-29T15:44:13;7.87;;;7.27;;
2684;SDS011;1352;48.446;9.156;2022-07-29T15:46:40;6.40;;;5.80;;
2684;SDS011;1352;48.446;9.156;2022-07-29T15:49:24;7.10;;;6.70;;